Strona główna
METAR-TAF:

METAR-TAF

Lotnisko :

Port lotniczy Bużumbura

Bużumbura, Burundi

Szerokość geograficzna: 03-19S, Długość geograficzna: 029-19E, wysokość: 782 m

METAR: brakujący

czas: 21:53 (19:53 UTC)

Prognoza

Raport powstał 2 godziny i 53 minut temu, godzina 17:00 UTC
Prognoza ważna od 25 godzina 18 UTC do 26 godzina 24 UTC
Wiatr 4 kt od północ
Widzialność 10 km lub więcej
Brak chmur poniżej 1500 m i brak chmur cumulonimbus
Stopniowe zmiany
od 26 godzina 03 UTC do 26 godzina 05 UTC
Wiatr 12 kt od południe w porywach dochodzący do 25 kt
Widzialność: 8000 m
Mało chmury na wysokości 3000 ft
Rozproszone chmury na wysokości 10000 ft
Mało chmury na wysokości 3500 ft
Stopniowe zmiany
od 26 godzina 18 UTC do 16 godzina 20 UTC
Wiatr kt od północ
Widzialność 10 km lub więcej
Brak chmur poniżej 1500 m i brak chmur cumulonimbus

TAF: HBBA 251700Z 2518/2624 36004KT CAVOK BECMG 2603/2605 VRB03KT 6000 FEW030 SCT100 BEMG 2608/2610 18012G25KT 8000 FEW035 BECMG 2618/1620 00000KT CAVOK

Obserwacja i prognoza pogody dla ponad 4000 lotnisk (raport METAR i TAF).

Dostępne stacje oznaczono żółtymi i czerwonymi punktami na mapie.

Najedź kursorem aby zobaczyć nazwę stacji.

Kliknij aby zobaczyć obserwacje i prognozy pogody.

Aby zmienić mapę: kliknij na zielony przycisk z czarnym krzyżykiem, aby powiększyć; na zielony przycisk z myślnikiem, aby pomniejszyć; na zielone strzałki, aby przejść do map sąsiednich.


METAR-TAF: